sensor_id;sensor_type;location;lat;lon;timestamp;P1;durP1;ratioP1;P2;durP2;ratioP2
20966;SDS011;10642;50.682;18.510;2023-11-22T00:00:59;43.40;;;24.83;;
20966;SDS011;10642;50.682;18.510;2023-11-22T00:03:26;46.03;;;25.30;;
20966;SDS011;10642;50.682;18.510;2023-11-22T00:05:53;49.93;;;28.90;;
20966;SDS011;10642;50.682;18.510;2023-11-22T00:08:20;54.87;;;28.33;;
20966;SDS011;10642;50.682;18.510;2023-11-22T00:10:47;51.43;;;27.80;;
20966;SDS011;10642;50.682;18.510;2023-11-22T00:13:14;48.13;;;27.23;;
20966;SDS011;10642;50.682;18.510;2023-11-22T00:15:41;50.37;;;25.37;;
20966;SDS011;10642;50.682;18.510;2023-11-22T00:18:08;47.53;;;26.50;;
20966;SDS011;10642;50.682;18.510;2023-11-22T00:20:35;48.17;;;27.10;;
20966;SDS011;10642;50.682;18.510;2023-11-22T00:23:02;45.77;;;27.40;;
20966;SDS011;10642;50.682;18.510;2023-11-22T00:25:30;40.77;;;22.90;;
20966;SDS011;10642;50.682;18.510;2023-11-22T00:27:57;43.43;;;23.80;;
20966;SDS011;10642;50.682;18.510;2023-11-22T00:30:24;45.77;;;24.50;;
20966;SDS011;10642;50.682;18.510;2023-11-22T00:32:51;43.63;;;25.67;;
20966;SDS011;10642;50.682;18.510;2023-11-22T00:35:18;40.17;;;23.03;;
20966;SDS011;10642;50.682;18.510;2023-11-22T00:37:45;43.87;;;25.23;;
20966;SDS011;10642;50.682;18.510;2023-11-22T00:40:12;41.20;;;23.97;;
20966;SDS011;10642;50.682;18.510;2023-11-22T00:42:40;40.60;;;24.30;;
20966;SDS011;10642;50.682;18.510;2023-11-22T00:45:09;44.73;;;23.67;;
20966;SDS011;10642;50.682;18.510;2023-11-22T00:47:37;37.77;;;22.70;;
20966;SDS011;10642;50.682;18.510;2023-11-22T00:50:04;39.10;;;22.90;;
20966;SDS011;10642;50.682;18.510;2023-11-22T00:52:31;38.20;;;20.40;;
20966;SDS011;10642;50.682;18.510;2023-11-22T00:54:58;38.30;;;21.00;;
20966;SDS011;10642;50.682;18.510;2023-11-22T00:57:25;39.07;;;21.03;;
20966;SDS011;10642;50.682;18.510;2023-11-22T00:59:53;40.07;;;22.50;;
20966;SDS011;10642;50.682;18.510;2023-11-22T01:02:20;39.00;;;22.97;;
20966;SDS011;10642;50.682;18.510;2023-11-22T01:04:48;43.50;;;25.07;;
20966;SDS011;10642;50.682;18.510;2023-11-22T01:07:14;41.97;;;23.63;;
20966;SDS011;10642;50.682;18.510;2023-11-22T01:09:41;48.33;;;25.77;;
20966;SDS011;10642;50.682;18.510;2023-11-22T01:12:09;47.60;;;24.13;;
20966;SDS011;10642;50.682;18.510;2023-11-22T01:14:35;49.87;;;26.13;;
20966;SDS011;10642;50.682;18.510;2023-11-22T01:17:03;48.60;;;25.90;;
20966;SDS011;10642;50.682;18.510;2023-11-22T01:19:30;51.87;;;26.50;;
20966;SDS011;10642;50.682;18.510;2023-11-22T01:21:57;55.17;;;29.90;;
20966;SDS011;10642;50.682;18.510;2023-11-22T01:24:25;54.13;;;29.20;;
20966;SDS011;10642;50.682;18.510;2023-11-22T01:26:54;59.77;;;32.03;;
20966;SDS011;10642;50.682;18.510;2023-11-22T01:29:23;68.10;;;32.73;;
20966;SDS011;10642;50.682;18.510;2023-11-22T01:31:50;58.90;;;31.77;;
20966;SDS011;10642;50.682;18.510;2023-11-22T01:34:17;66.57;;;32.50;;
20966;SDS011;10642;50.682;18.510;2023-11-22T01:36:44;62.53;;;31.53;;
20966;SDS011;10642;50.682;18.510;2023-11-22T01:39:11;64.73;;;31.23;;
20966;SDS011;10642;50.682;18.510;2023-11-22T01:41:44;57.97;;;32.57;;
20966;SDS011;10642;50.682;18.510;2023-11-22T01:44:12;53.60;;;27.20;;
20966;SDS011;10642;50.682;18.510;2023-11-22T01:46:38;57.93;;;29.83;;
20966;SDS011;10642;50.682;18.510;2023-11-22T01:49:05;56.10;;;30.70;;
20966;SDS011;10642;50.682;18.510;2023-11-22T01:51:33;47.93;;;27.77;;
20966;SDS011;10642;50.682;18.510;2023-11-22T01:54:00;42.80;;;24.73;;
20966;SDS011;10642;50.682;18.510;2023-11-22T01:56:28;43.33;;;24.33;;
20966;SDS011;10642;50.682;18.510;2023-11-22T01:58:55;41.50;;;22.90;;
20966;SDS011;10642;50.682;18.510;2023-11-22T02:01:26;38.47;;;23.30;;
20966;SDS011;10642;50.682;18.510;2023-11-22T02:03:52;40.63;;;22.70;;
20966;SDS011;10642;50.682;18.510;2023-11-22T02:06:20;47.30;;;25.37;;
20966;SDS011;10642;50.682;18.510;2023-11-22T02:08:51;43.57;;;24.53;;
20966;SDS011;10642;50.682;18.510;2023-11-22T02:11:19;43.87;;;25.93;;
20966;SDS011;10642;50.682;18.510;2023-11-22T02:13:51;40.73;;;23.43;;
20966;SDS011;10642;50.682;18.510;2023-11-22T02:16:18;39.07;;;24.40;;
20966;SDS011;10642;50.682;18.510;2023-11-22T02:18:46;37.17;;;22.90;;
20966;SDS011;10642;50.682;18.510;2023-11-22T02:21:17;41.10;;;21.87;;
20966;SDS011;10642;50.682;18.510;2023-11-22T02:23:44;38.97;;;21.97;;
20966;SDS011;10642;50.682;18.510;2023-11-22T02:26:11;40.20;;;22.83;;
20966;SDS011;10642;50.682;18.510;2023-11-22T02:28:38;36.37;;;21.20;;
20966;SDS011;10642;50.682;18.510;2023-11-22T02:31:05;35.83;;;21.50;;
20966;SDS011;10642;50.682;18.510;2023-11-22T02:33:32;41.27;;;24.33;;
20966;SDS011;10642;50.682;18.510;2023-11-22T02:35:59;39.13;;;22.57;;
20966;SDS011;10642;50.682;18.510;2023-11-22T02:38:25;37.90;;;22.43;;
20966;SDS011;10642;50.682;18.510;2023-11-22T02:40:54;34.10;;;20.57;;
20966;SDS011;10642;50.682;18.510;2023-11-22T02:43:21;35.20;;;19.17;;
20966;SDS011;10642;50.682;18.510;2023-11-22T02:45:50;33.17;;;19.70;;
20966;SDS011;10642;50.682;18.510;2023-11-22T02:48:17;31.87;;;17.93;;
20966;SDS011;10642;50.682;18.510;2023-11-22T02:50:45;34.47;;;19.07;;
20966;SDS011;10642;50.682;18.510;2023-11-22T02:53:12;30.00;;;18.13;;
20966;SDS011;10642;50.682;18.510;2023-11-22T02:55:52;30.20;;;19.10;;
20966;SDS011;10642;50.682;18.510;2023-11-22T02:58:22;27.60;;;17.77;;
20966;SDS011;10642;50.682;18.510;2023-11-22T03:00:49;29.67;;;17.70;;
20966;SDS011;10642;50.682;18.510;2023-11-22T03:03:16;28.33;;;16.67;;
20966;SDS011;10642;50.682;18.510;2023-11-22T03:05:44;31.37;;;17.50;;
20966;SDS011;10642;50.682;18.510;2023-11-22T03:08:11;27.83;;;17.00;;
20966;SDS011;10642;50.682;18.510;2023-11-22T03:10:39;29.73;;;18.13;;
20966;SDS011;10642;50.682;18.510;2023-11-22T03:13:06;29.47;;;19.53;;
20966;SDS011;10642;50.682;18.510;2023-11-22T03:15:34;27.83;;;16.90;;
20966;SDS011;10642;50.682;18.510;2023-11-22T03:18:01;23.23;;;15.80;;
20966;SDS011;10642;50.682;18.510;2023-11-22T03:20:28;25.97;;;16.13;;
20966;SDS011;10642;50.682;18.510;2023-11-22T03:22:55;25.30;;;13.97;;
20966;SDS011;10642;50.682;18.510;2023-11-22T03:25:22;25.23;;;15.53;;
20966;SDS011;10642;50.682;18.510;2023-11-22T03:27:50;26.13;;;15.80;;
20966;SDS011;10642;50.682;18.510;2023-11-22T03:30:16;26.77;;;18.07;;
20966;SDS011;10642;50.682;18.510;2023-11-22T03:32:43;30.63;;;17.40;;
20966;SDS011;10642;50.682;18.510;2023-11-22T03:35:11;28.33;;;16.00;;
20966;SDS011;10642;50.682;18.510;2023-11-22T03:37:39;25.67;;;15.70;;
20966;SDS011;10642;50.682;18.510;2023-11-22T03:40:06;30.53;;;16.47;;
20966;SDS011;10642;50.682;18.510;2023-11-22T03:42:33;29.23;;;17.13;;
20966;SDS011;10642;50.682;18.510;2023-11-22T03:45:00;24.63;;;14.60;;
20966;SDS011;10642;50.682;18.510;2023-11-22T03:47:27;25.47;;;14.40;;
20966;SDS011;10642;50.682;18.510;2023-11-22T03:49:54;25.70;;;13.93;;
20966;SDS011;10642;50.682;18.510;2023-11-22T03:52:21;26.30;;;13.77;;
20966;SDS011;10642;50.682;18.510;2023-11-22T03:54:48;22.40;;;13.63;;
20966;SDS011;10642;50.682;18.510;2023-11-22T03:57:15;23.90;;;13.37;;
20966;SDS011;10642;50.682;18.510;2023-11-22T03:59:42;22.93;;;12.97;;
20966;SDS011;10642;50.682;18.510;2023-11-22T04:02:09;25.17;;;13.73;;
20966;SDS011;10642;50.682;18.510;2023-11-22T04:04:37;22.60;;;14.33;;
20966;SDS011;10642;50.682;18.510;2023-11-22T04:07:06;25.97;;;15.33;;
20966;SDS011;10642;50.682;18.510;2023-11-22T04:09:33;26.23;;;15.33;;
20966;SDS011;10642;50.682;18.510;2023-11-22T04:12:00;27.07;;;15.47;;
20966;SDS011;10642;50.682;18.510;2023-11-22T04:14:27;28.87;;;14.90;;
20966;SDS011;10642;50.682;18.510;2023-11-22T04:16:55;27.80;;;14.93;;
20966;SDS011;10642;50.682;18.510;2023-11-22T04:19:22;30.63;;;15.97;;
20966;SDS011;10642;50.682;18.510;2023-11-22T04:21:49;26.43;;;16.00;;
20966;SDS011;10642;50.682;18.510;2023-11-22T04:24:16;30.23;;;18.17;;
20966;SDS011;10642;50.682;18.510;2023-11-22T04:26:44;33.27;;;18.57;;
20966;SDS011;10642;50.682;18.510;2023-11-22T04:29:14;39.27;;;19.00;;
20966;SDS011;10642;50.682;18.510;2023-11-22T04:31:43;35.67;;;20.03;;
20966;SDS011;10642;50.682;18.510;2023-11-22T04:34:10;38.97;;;21.90;;
20966;SDS011;10642;50.682;18.510;2023-11-22T04:36:37;47.00;;;24.53;;
20966;SDS011;10642;50.682;18.510;2023-11-22T04:39:05;44.33;;;24.73;;
20966;SDS011;10642;50.682;18.510;2023-11-22T04:41:34;41.67;;;23.47;;
20966;SDS011;10642;50.682;18.510;2023-11-22T04:44:01;48.53;;;23.37;;
20966;SDS011;10642;50.682;18.510;2023-11-22T04:46:28;41.57;;;23.63;;
20966;SDS011;10642;50.682;18.510;2023-11-22T04:48:56;46.30;;;24.80;;
20966;SDS011;10642;50.682;18.510;2023-11-22T04:51:24;45.67;;;24.03;;
20966;SDS011;10642;50.682;18.510;2023-11-22T04:53:51;46.83;;;25.57;;
20966;SDS011;10642;50.682;18.510;2023-11-22T04:56:18;41.77;;;22.93;;
20966;SDS011;10642;50.682;18.510;2023-11-22T04:58:45;37.17;;;23.20;;
20966;SDS011;10642;50.682;18.510;2023-11-22T05:01:12;44.37;;;23.80;;
20966;SDS011;10642;50.682;18.510;2023-11-22T05:03:40;49.77;;;23.13;;
20966;SDS011;10642;50.682;18.510;2023-11-22T05:06:07;46.83;;;23.00;;
20966;SDS011;10642;50.682;18.510;2023-11-22T05:08:34;40.87;;;23.27;;
20966;SDS011;10642;50.682;18.510;2023-11-22T05:11:01;40.53;;;24.17;;
20966;SDS011;10642;50.682;18.510;2023-11-22T05:13:29;43.43;;;25.17;;
20966;SDS011;10642;50.682;18.510;2023-11-22T05:15:56;39.90;;;23.00;;
20966;SDS011;10642;50.682;18.510;2023-11-22T05:18:23;40.37;;;23.20;;
20966;SDS011;10642;50.682;18.510;2023-11-22T05:20:50;45.93;;;23.10;;
20966;SDS011;10642;50.682;18.510;2023-11-22T05:23:17;35.63;;;20.83;;
20966;SDS011;10642;50.682;18.510;2023-11-22T05:25:44;38.37;;;22.27;;
20966;SDS011;10642;50.682;18.510;2023-11-22T05:28:12;37.93;;;20.40;;
20966;SDS011;10642;50.682;18.510;2023-11-22T05:30:39;35.30;;;20.57;;
20966;SDS011;10642;50.682;18.510;2023-11-22T05:33:06;37.93;;;20.67;;
20966;SDS011;10642;50.682;18.510;2023-11-22T05:35:33;34.57;;;19.73;;
20966;SDS011;10642;50.682;18.510;2023-11-22T05:38:00;37.53;;;19.47;;
20966;SDS011;10642;50.682;18.510;2023-11-22T05:40:29;34.13;;;20.20;;
20966;SDS011;10642;50.682;18.510;2023-11-22T05:42:55;31.60;;;18.87;;
20966;SDS011;10642;50.682;18.510;2023-11-22T05:45:22;30.87;;;18.23;;
20966;SDS011;10642;50.682;18.510;2023-11-22T05:47:50;34.07;;;17.80;;
20966;SDS011;10642;50.682;18.510;2023-11-22T05:50:17;30.13;;;16.23;;
20966;SDS011;10642;50.682;18.510;2023-11-22T05:52:44;28.63;;;17.70;;
20966;SDS011;10642;50.682;18.510;2023-11-22T05:55:11;30.07;;;17.33;;
20966;SDS011;10642;50.682;18.510;2023-11-22T05:57:41;29.70;;;17.30;;
20966;SDS011;10642;50.682;18.510;2023-11-22T06:00:08;29.93;;;16.60;;
20966;SDS011;10642;50.682;18.510;2023-11-22T06:02:35;27.37;;;16.47;;
20966;SDS011;10642;50.682;18.510;2023-11-22T06:05:04;25.60;;;14.47;;
20966;SDS011;10642;50.682;18.510;2023-11-22T06:07:32;25.07;;;14.27;;
20966;SDS011;10642;50.682;18.510;2023-11-22T06:10:00;26.10;;;13.57;;
20966;SDS011;10642;50.682;18.510;2023-11-22T06:12:29;52.17;;;23.03;;
20966;SDS011;10642;50.682;18.510;2023-11-22T06:14:56;27.93;;;15.37;;
20966;SDS011;10642;50.682;18.510;2023-11-22T06:17:23;25.20;;;14.40;;
20966;SDS011;10642;50.682;18.510;2023-11-22T06:19:50;23.90;;;14.33;;
20966;SDS011;10642;50.682;18.510;2023-11-22T06:22:17;25.67;;;16.13;;
20966;SDS011;10642;50.682;18.510;2023-11-22T06:24:46;23.53;;;14.97;;
20966;SDS011;10642;50.682;18.510;2023-11-22T06:27:15;25.77;;;15.90;;
20966;SDS011;10642;50.682;18.510;2023-11-22T06:29:42;25.53;;;14.37;;
20966;SDS011;10642;50.682;18.510;2023-11-22T06:32:11;27.47;;;16.10;;
20966;SDS011;10642;50.682;18.510;2023-11-22T06:34:38;27.17;;;15.10;;
20966;SDS011;10642;50.682;18.510;2023-11-22T06:37:06;36.37;;;16.40;;
20966;SDS011;10642;50.682;18.510;2023-11-22T06:39:35;26.80;;;17.20;;
20966;SDS011;10642;50.682;18.510;2023-11-22T06:42:02;28.80;;;17.47;;
20966;SDS011;10642;50.682;18.510;2023-11-22T06:44:29;30.30;;;16.60;;
20966;SDS011;10642;50.682;18.510;2023-11-22T06:46:56;29.40;;;17.57;;
20966;SDS011;10642;50.682;18.510;2023-11-22T06:49:23;30.67;;;18.03;;
20966;SDS011;10642;50.682;18.510;2023-11-22T06:51:50;37.73;;;18.23;;
20966;SDS011;10642;50.682;18.510;2023-11-22T06:54:19;31.93;;;19.03;;
20966;SDS011;10642;50.682;18.510;2023-11-22T06:56:47;32.87;;;17.70;;
20966;SDS011;10642;50.682;18.510;2023-11-22T06:59:14;30.87;;;19.27;;
20966;SDS011;10642;50.682;18.510;2023-11-22T07:01:41;34.50;;;19.07;;
20966;SDS011;10642;50.682;18.510;2023-11-22T07:04:08;32.63;;;18.07;;
20966;SDS011;10642;50.682;18.510;2023-11-22T07:06:35;32.43;;;17.63;;
20966;SDS011;10642;50.682;18.510;2023-11-22T07:09:04;32.63;;;18.17;;
20966;SDS011;10642;50.682;18.510;2023-11-22T07:11:31;32.90;;;17.63;;
20966;SDS011;10642;50.682;18.510;2023-11-22T07:13:58;31.67;;;17.03;;
20966;SDS011;10642;50.682;18.510;2023-11-22T07:16:25;30.43;;;17.57;;
20966;SDS011;10642;50.682;18.510;2023-11-22T07:18:52;31.77;;;17.97;;
20966;SDS011;10642;50.682;18.510;2023-11-22T07:21:18;27.47;;;16.47;;
20966;SDS011;10642;50.682;18.510;2023-11-22T07:23:47;28.43;;;16.37;;
20966;SDS011;10642;50.682;18.510;2023-11-22T07:26:17;28.40;;;15.30;;
20966;SDS011;10642;50.682;18.510;2023-11-22T07:28:44;26.70;;;15.20;;
20966;SDS011;10642;50.682;18.510;2023-11-22T07:31:12;27.20;;;14.73;;
20966;SDS011;10642;50.682;18.510;2023-11-22T07:33:39;26.57;;;16.53;;
20966;SDS011;10642;50.682;18.510;2023-11-22T07:36:06;27.57;;;16.20;;
20966;SDS011;10642;50.682;18.510;2023-11-22T07:38:34;26.27;;;15.73;;
20966;SDS011;10642;50.682;18.510;2023-11-22T07:41:02;31.20;;;16.90;;
20966;SDS011;10642;50.682;18.510;2023-11-22T07:43:29;30.07;;;16.93;;
20966;SDS011;10642;50.682;18.510;2023-11-22T07:45:57;31.87;;;16.03;;
20966;SDS011;10642;50.682;18.510;2023-11-22T07:48:26;26.73;;;15.47;;
20966;SDS011;10642;50.682;18.510;2023-11-22T07:50:53;29.97;;;17.07;;
20966;SDS011;10642;50.682;18.510;2023-11-22T07:53:21;26.80;;;16.13;;
20966;SDS011;10642;50.682;18.510;2023-11-22T07:55:48;28.97;;;16.07;;
20966;SDS011;10642;50.682;18.510;2023-11-22T07:58:15;27.50;;;15.93;;
20966;SDS011;10642;50.682;18.510;2023-11-22T08:00:42;29.77;;;14.90;;
20966;SDS011;10642;50.682;18.510;2023-11-22T08:03:09;30.50;;;17.27;;
20966;SDS011;10642;50.682;18.510;2023-11-22T08:05:37;32.83;;;18.33;;
20966;SDS011;10642;50.682;18.510;2023-11-22T08:08:07;29.77;;;18.33;;
20966;SDS011;10642;50.682;18.510;2023-11-22T08:10:35;29.83;;;16.20;;
20966;SDS011;10642;50.682;18.510;2023-11-22T08:13:02;34.30;;;16.93;;
20966;SDS011;10642;50.682;18.510;2023-11-22T08:15:30;29.93;;;18.20;;
20966;SDS011;10642;50.682;18.510;2023-11-22T08:18:00;33.63;;;16.97;;
20966;SDS011;10642;50.682;18.510;2023-11-22T08:20:27;30.37;;;17.37;;
20966;SDS011;10642;50.682;18.510;2023-11-22T08:22:54;32.07;;;16.97;;
20966;SDS011;10642;50.682;18.510;2023-11-22T08:25:21;33.60;;;18.03;;
20966;SDS011;10642;50.682;18.510;2023-11-22T08:27:48;30.63;;;17.07;;
20966;SDS011;10642;50.682;18.510;2023-11-22T08:30:16;31.37;;;15.90;;
20966;SDS011;10642;50.682;18.510;2023-11-22T08:32:45;31.03;;;15.73;;
20966;SDS011;10642;50.682;18.510;2023-11-22T08:35:15;28.97;;;16.33;;
20966;SDS011;10642;50.682;18.510;2023-11-22T08:37:42;29.07;;;15.43;;
20966;SDS011;10642;50.682;18.510;2023-11-22T08:40:10;29.03;;;15.03;;
20966;SDS011;10642;50.682;18.510;2023-11-22T08:42:47;30.80;;;15.77;;
20966;SDS011;10642;50.682;18.510;2023-11-22T08:45:14;26.93;;;15.90;;
20966;SDS011;10642;50.682;18.510;2023-11-22T08:47:42;26.97;;;15.50;;
20966;SDS011;10642;50.682;18.510;2023-11-22T08:50:09;28.53;;;15.40;;
20966;SDS011;10642;50.682;18.510;2023-11-22T08:52:39;27.73;;;15.50;;
20966;SDS011;10642;50.682;18.510;2023-11-22T08:55:08;31.10;;;16.20;;
20966;SDS011;10642;50.682;18.510;2023-11-22T08:57:36;27.07;;;15.63;;
20966;SDS011;10642;50.682;18.510;2023-11-22T09:00:04;27.10;;;15.53;;
20966;SDS011;10642;50.682;18.510;2023-11-22T09:02:33;22.60;;;13.33;;
20966;SDS011;10642;50.682;18.510;2023-11-22T09:05:00;27.70;;;15.57;;
20966;SDS011;10642;50.682;18.510;2023-11-22T09:07:27;24.47;;;13.50;;
20966;SDS011;10642;50.682;18.510;2023-11-22T09:09:54;23.03;;;13.03;;
20966;SDS011;10642;50.682;18.510;2023-11-22T09:12:21;21.60;;;12.80;;
20966;SDS011;10642;50.682;18.510;2023-11-22T09:14:48;26.03;;;14.50;;
20966;SDS011;10642;50.682;18.510;2023-11-22T09:17:15;23.57;;;12.50;;
20966;SDS011;10642;50.682;18.510;2023-11-22T09:19:43;16.60;;;9.27;;
20966;SDS011;10642;50.682;18.510;2023-11-22T09:22:10;18.80;;;10.57;;
20966;SDS011;10642;50.682;18.510;2023-11-22T09:24:37;21.80;;;11.90;;
20966;SDS011;10642;50.682;18.510;2023-11-22T09:27:04;29.57;;;15.83;;
20966;SDS011;10642;50.682;18.510;2023-11-22T09:29:32;27.60;;;15.10;;
20966;SDS011;10642;50.682;18.510;2023-11-22T09:31:59;26.70;;;14.73;;
20966;SDS011;10642;50.682;18.510;2023-11-22T09:34:28;28.83;;;14.60;;
20966;SDS011;10642;50.682;18.510;2023-11-22T09:36:56;30.83;;;14.17;;
20966;SDS011;10642;50.682;18.510;2023-11-22T09:39:23;27.17;;;13.87;;
20966;SDS011;10642;50.682;18.510;2023-11-22T09:41:51;26.77;;;14.73;;
20966;SDS011;10642;50.682;18.510;2023-11-22T09:44:19;22.57;;;12.37;;
20966;SDS011;10642;50.682;18.510;2023-11-22T09:46:50;23.67;;;12.73;;
20966;SDS011;10642;50.682;18.510;2023-11-22T09:49:19;21.37;;;12.80;;
20966;SDS011;10642;50.682;18.510;2023-11-22T09:51:48;24.80;;;12.50;;
20966;SDS011;10642;50.682;18.510;2023-11-22T09:54:18;20.43;;;12.50;;
20966;SDS011;10642;50.682;18.510;2023-11-22T09:56:46;22.77;;;12.27;;
20966;SDS011;10642;50.682;18.510;2023-11-22T09:59:18;22.07;;;12.00;;
20966;SDS011;10642;50.682;18.510;2023-11-22T10:01:50;21.27;;;12.30;;
20966;SDS011;10642;50.682;18.510;2023-11-22T10:04:19;22.57;;;11.87;;
20966;SDS011;10642;50.682;18.510;2023-11-22T10:06:46;18.30;;;12.40;;
20966;SDS011;10642;50.682;18.510;2023-11-22T10:09:13;19.77;;;11.93;;
20966;SDS011;10642;50.682;18.510;2023-11-22T10:11:41;20.97;;;11.63;;
20966;SDS011;10642;50.682;18.510;2023-11-22T10:14:10;17.50;;;9.67;;
20966;SDS011;10642;50.682;18.510;2023-11-22T10:16:37;14.83;;;8.80;;
20966;SDS011;10642;50.682;18.510;2023-11-22T10:19:04;19.43;;;10.03;;
20966;SDS011;10642;50.682;18.510;2023-11-22T10:21:35;17.53;;;9.13;;
20966;SDS011;10642;50.682;18.510;2023-11-22T10:24:04;14.50;;;8.30;;
20966;SDS011;10642;50.682;18.510;2023-11-22T10:26:31;14.80;;;8.83;;
20966;SDS011;10642;50.682;18.510;2023-11-22T10:28:58;16.23;;;7.87;;
20966;SDS011;10642;50.682;18.510;2023-11-22T10:31:26;15.17;;;8.40;;
20966;SDS011;10642;50.682;18.510;2023-11-22T10:33:54;15.83;;;9.00;;
20966;SDS011;10642;50.682;18.510;2023-11-22T10:36:25;14.57;;;8.43;;
20966;SDS011;10642;50.682;18.510;2023-11-22T10:38:52;14.20;;;9.00;;
20966;SDS011;10642;50.682;18.510;2023-11-22T10:41:20;11.83;;;6.90;;
20966;SDS011;10642;50.682;18.510;2023-11-22T10:43:51;16.23;;;9.67;;
20966;SDS011;10642;50.682;18.510;2023-11-22T10:46:18;18.77;;;11.47;;
20966;SDS011;10642;50.682;18.510;2023-11-22T10:48:45;18.97;;;11.20;;
20966;SDS011;10642;50.682;18.510;2023-11-22T10:51:13;20.37;;;11.63;;
20966;SDS011;10642;50.682;18.510;2023-11-22T10:53:48;21.47;;;11.63;;
20966;SDS011;10642;50.682;18.510;2023-11-22T10:56:17;22.77;;;12.17;;
20966;SDS011;10642;50.682;18.510;2023-11-22T10:58:51;17.33;;;12.10;;
20966;SDS011;10642;50.682;18.510;2023-11-22T11:01:19;13.80;;;8.43;;
20966;SDS011;10642;50.682;18.510;2023-11-22T11:03:53;14.10;;;8.40;;
20966;SDS011;10642;50.682;18.510;2023-11-22T11:06:24;24.53;;;13.90;;
20966;SDS011;10642;50.682;18.510;2023-11-22T11:08:58;25.53;;;14.07;;
20966;SDS011;10642;50.682;18.510;2023-11-22T11:11:27;37.17;;;25.70;;
20966;SDS011;10642;50.682;18.510;2023-11-22T11:13:55;20.07;;;12.77;;
20966;SDS011;10642;50.682;18.510;2023-11-22T11:16:22;17.50;;;12.63;;
20966;SDS011;10642;50.682;18.510;2023-11-22T11:18:50;24.07;;;14.07;;
20966;SDS011;10642;50.682;18.510;2023-11-22T11:21:17;31.23;;;17.30;;
20966;SDS011;10642;50.682;18.510;2023-11-22T11:23:45;24.97;;;14.00;;
20966;SDS011;10642;50.682;18.510;2023-11-22T11:26:17;25.37;;;14.67;;
20966;SDS011;10642;50.682;18.510;2023-11-22T11:28:45;28.93;;;16.80;;
20966;SDS011;10642;50.682;18.510;2023-11-22T11:31:14;27.77;;;16.67;;
20966;SDS011;10642;50.682;18.510;2023-11-22T11:36:21;27.63;;;15.60;;
20966;SDS011;10642;50.682;18.510;2023-11-22T11:38:50;25.97;;;14.27;;
20966;SDS011;10642;50.682;18.510;2023-11-22T11:41:17;26.20;;;14.43;;
20966;SDS011;10642;50.682;18.510;2023-11-22T11:43:45;27.67;;;14.43;;
20966;SDS011;10642;50.682;18.510;2023-11-22T11:46:13;28.20;;;15.33;;
20966;SDS011;10642;50.682;18.510;2023-11-22T11:48:44;25.73;;;14.67;;
20966;SDS011;10642;50.682;18.510;2023-11-22T11:51:14;24.00;;;13.13;;
20966;SDS011;10642;50.682;18.510;2023-11-22T11:53:42;23.27;;;13.07;;
20966;SDS011;10642;50.682;18.510;2023-11-22T11:56:09;26.10;;;14.20;;
20966;SDS011;10642;50.682;18.510;2023-11-22T11:58:36;26.07;;;15.73;;
20966;SDS011;10642;50.682;18.510;2023-11-22T12:01:04;30.93;;;17.07;;
20966;SDS011;10642;50.682;18.510;2023-11-22T12:03:32;25.80;;;15.50;;
20966;SDS011;10642;50.682;18.510;2023-11-22T12:05:59;30.77;;;16.53;;
20966;SDS011;10642;50.682;18.510;2023-11-22T12:08:26;30.77;;;16.53;;
20966;SDS011;10642;50.682;18.510;2023-11-22T12:10:57;27.17;;;14.70;;
20966;SDS011;10642;50.682;18.510;2023-11-22T12:13:25;29.30;;;15.50;;
20966;SDS011;10642;50.682;18.510;2023-11-22T12:15:52;29.60;;;16.63;;
20966;SDS011;10642;50.682;18.510;2023-11-22T12:18:22;40.77;;;20.07;;
20966;SDS011;10642;50.682;18.510;2023-11-22T12:20:56;33.27;;;17.93;;
20966;SDS011;10642;50.682;18.510;2023-11-22T12:23:27;32.70;;;17.20;;
20966;SDS011;10642;50.682;18.510;2023-11-22T12:25:57;24.93;;;14.27;;
20966;SDS011;10642;50.682;18.510;2023-11-22T12:28:26;24.37;;;13.83;;
20966;SDS011;10642;50.682;18.510;2023-11-22T12:30:53;24.73;;;15.67;;
20966;SDS011;10642;50.682;18.510;2023-11-22T12:33:20;21.70;;;11.90;;
20966;SDS011;10642;50.682;18.510;2023-11-22T12:35:48;23.60;;;12.53;;
20966;SDS011;10642;50.682;18.510;2023-11-22T12:38:15;22.93;;;13.27;;
20966;SDS011;10642;50.682;18.510;2023-11-22T12:40:43;23.23;;;13.70;;
20966;SDS011;10642;50.682;18.510;2023-11-22T12:43:11;29.63;;;19.83;;
20966;SDS011;10642;50.682;18.510;2023-11-22T12:45:40;25.63;;;16.17;;
20966;SDS011;10642;50.682;18.510;2023-11-22T12:48:21;22.17;;;14.57;;
20966;SDS011;10642;50.682;18.510;2023-11-22T12:50:51;21.60;;;12.87;;
20966;SDS011;10642;50.682;18.510;2023-11-22T12:53:18;27.53;;;16.43;;
20966;SDS011;10642;50.682;18.510;2023-11-22T12:55:49;17.60;;;10.33;;
20966;SDS011;10642;50.682;18.510;2023-11-22T12:58:16;19.00;;;12.03;;
20966;SDS011;10642;50.682;18.510;2023-11-22T13:00:44;32.30;;;22.93;;
20966;SDS011;10642;50.682;18.510;2023-11-22T13:03:11;25.30;;;13.43;;
20966;SDS011;10642;50.682;18.510;2023-11-22T13:05:39;18.17;;;12.60;;
20966;SDS011;10642;50.682;18.510;2023-11-22T13:08:07;20.53;;;12.13;;
20966;SDS011;10642;50.682;18.510;2023-11-22T13:10:33;19.17;;;11.87;;
20966;SDS011;10642;50.682;18.510;2023-11-22T13:13:00;20.37;;;12.07;;
20966;SDS011;10642;50.682;18.510;2023-11-22T13:15:27;20.33;;;12.33;;
20966;SDS011;10642;50.682;18.510;2023-11-22T13:17:55;20.10;;;12.07;;
20966;SDS011;10642;50.682;18.510;2023-11-22T13:20:23;21.87;;;11.43;;
20966;SDS011;10642;50.682;18.510;2023-11-22T13:22:50;18.77;;;11.23;;
20966;SDS011;10642;50.682;18.510;2023-11-22T13:25:17;19.37;;;11.20;;
20966;SDS011;10642;50.682;18.510;2023-11-22T13:27:49;18.90;;;11.07;;
20966;SDS011;10642;50.682;18.510;2023-11-22T13:30:16;15.67;;;9.63;;
20966;SDS011;10642;50.682;18.510;2023-11-22T13:32:46;18.03;;;10.93;;
20966;SDS011;10642;50.682;18.510;2023-11-22T13:35:14;19.53;;;11.17;;
20966;SDS011;10642;50.682;18.510;2023-11-22T13:37:41;21.83;;;11.93;;
20966;SDS011;10642;50.682;18.510;2023-11-22T13:40:10;19.43;;;10.40;;
20966;SDS011;10642;50.682;18.510;2023-11-22T13:45:10;17.00;;;9.40;;
20966;SDS011;10642;50.682;18.510;2023-11-22T13:47:37;17.20;;;9.83;;
20966;SDS011;10642;50.682;18.510;2023-11-22T13:50:05;19.23;;;11.00;;
20966;SDS011;10642;50.682;18.510;2023-11-22T13:52:33;17.47;;;9.97;;
20966;SDS011;10642;50.682;18.510;2023-11-22T13:55:00;17.13;;;8.53;;
20966;SDS011;10642;50.682;18.510;2023-11-22T13:57:30;20.63;;;10.83;;
20966;SDS011;10642;50.682;18.510;2023-11-22T13:59:58;21.33;;;9.83;;
20966;SDS011;10642;50.682;18.510;2023-11-22T14:02:25;21.63;;;11.20;;
20966;SDS011;10642;50.682;18.510;2023-11-22T14:04:52;17.60;;;13.33;;
20966;SDS011;10642;50.682;18.510;2023-11-22T14:07:19;19.53;;;12.03;;
20966;SDS011;10642;50.682;18.510;2023-11-22T14:09:46;17.33;;;10.27;;
20966;SDS011;10642;50.682;18.510;2023-11-22T14:12:13;21.37;;;12.50;;
20966;SDS011;10642;50.682;18.510;2023-11-22T14:14:40;19.13;;;11.43;;
20966;SDS011;10642;50.682;18.510;2023-11-22T14:17:07;21.90;;;13.10;;